Time;durP1;ratioP1;P1;durP2;ratioP2;P2;SDS_P1;SDS_P2;PMS_P1;PMS_P2;Temp;Humidity;BMP_temperature;BMP_pressure;BME280_temperature;BME280_humidity;BME280_pressure;Samples;Min_cycle;Max_cycle;Signal;HPM_P1;HPM_P2
2023/03/18 00:00:08;;;;;;;8.23;6.30;;;10.50;1.00;;;;;;5053646;28;20740;-70
2023/03/18 00:02:35;;;;;;;6.80;5.70;;;10.40;1.00;;;;;;5054271;28;20404;-70
2023/03/18 00:05:03;;;;;;;7.63;5.83;;;10.40;1.00;;;;;;5053939;28;20788;-75
2023/03/18 00:07:29;;;;;;;6.50;5.90;;;10.40;1.00;;;;;;5052764;28;20465;-75
2023/03/18 00:09:55;;;;;;;6.30;5.67;;;10.40;1.00;;;;;;5053960;28;20386;-76
2023/03/18 00:12:21;;;;;;;7.63;6.93;;;10.40;1.00;;;;;;5052467;28;20498;-72
2023/03/18 00:14:46;;;;;;;6.40;5.80;;;10.40;1.00;;;;;;5036241;28;20385;-75
2023/03/18 00:17:12;;;;;;;6.60;6.00;;;10.40;1.00;;;;;;5053925;28;20616;-69
2023/03/18 00:19:38;;;;;;;10.17;6.97;;;10.40;1.00;;;;;;5052997;28;20425;-70
2023/03/18 00:22:04;;;;;;;10.67;6.40;;;10.40;1.00;;;;;;5052134;28;20211;-70
2023/03/18 00:24:30;;;;;;;6.90;6.20;;;10.40;1.00;;;;;;5053723;28;20228;-72
2023/03/18 00:26:56;;;;;;;6.13;5.53;;;10.40;1.00;;;;;;5034039;28;20457;-70
2023/03/18 00:29:23;;;;;;;8.50;5.90;;;10.40;1.00;;;;;;5053623;28;20600;-75
2023/03/18 00:31:50;;;;;;;8.53;6.20;;;10.30;1.00;;;;;;5052678;28;20183;-75
2023/03/18 00:34:16;;;;;;;12.90;6.20;;;10.40;1.00;;;;;;5053756;28;20405;-75
2023/03/18 00:37:28;;;;;;;8.33;5.80;;;10.40;1.00;;;;;;5019123;28;21025;-76
2023/03/18 00:40:09;;;;;;;6.50;5.90;;;10.30;1.00;;;;;;5052455;28;20448;-75
2023/03/18 00:42:46;;;;;;;6.03;5.40;;;10.30;1.00;;;;;;5053461;28;20443;-70
2023/03/18 00:45:13;;;;;;;5.83;5.30;;;10.30;1.00;;;;;;5052445;28;20411;-75
2023/03/18 00:47:39;;;;;;;7.33;6.07;;;10.30;1.00;;;;;;5035182;28;20435;-75
2023/03/18 00:50:07;;;;;;;6.50;5.90;;;10.30;1.00;;;;;;5051798;28;20514;-75
2023/03/18 00:52:33;;;;;;;10.33;5.47;;;10.30;1.00;;;;;;5053289;28;20495;-70
2023/03/18 00:54:59;;;;;;;5.97;5.40;;;10.20;1.00;;;;;;5052713;28;20433;-70
2023/03/18 00:57:26;;;;;;;7.53;6.60;;;10.30;1.00;;;;;;5052389;28;20494;-70
2023/03/18 00:59:52;;;;;;;6.33;5.60;;;10.30;1.00;;;;;;5053525;28;20525;-70
2023/03/18 01:02:19;;;;;;;6.13;5.63;;;10.20;1.00;;;;;;5034272;28;20946;-76
2023/03/18 01:04:45;;;;;;;6.70;6.10;;;10.20;1.00;;;;;;5034296;28;20789;-69
2023/03/18 01:07:12;;;;;;;6.70;6.10;;;10.30;1.00;;;;;;5035503;28;20432;-75
2023/03/18 01:09:39;;;;;;;7.40;5.63;;;10.30;1.00;;;;;;5031332;28;20400;-69
2023/03/18 01:12:07;;;;;;;6.10;5.60;;;10.20;1.00;;;;;;5013727;28;20445;-75
2023/03/18 01:14:35;;;;;;;6.20;5.60;;;10.20;1.00;;;;;;5033184;28;20439;-75
2023/03/18 01:17:02;;;;;;;6.90;5.33;;;10.20;1.00;;;;;;5033213;28;20391;-71
2023/03/18 01:19:28;;;;;;;6.57;5.97;;;10.20;1.00;;;;;;5045134;28;20445;-69
2023/03/18 01:21:54;;;;;;;7.20;5.30;;;10.20;1.00;;;;;;5050334;28;20497;-75
2023/03/18 01:24:21;;;;;;;6.53;5.60;;;10.20;1.00;;;;;;5053031;28;20388;-75
2023/03/18 01:26:47;;;;;;;6.90;6.23;;;10.20;1.00;;;;;;5052837;28;20942;-69
2023/03/18 01:29:16;;;;;;;9.30;5.97;;;10.30;1.00;;;;;;5052951;28;20421;-76
2023/03/18 01:31:49;;;;;;;5.70;5.10;;;10.30;1.00;;;;;;5050931;28;20827;-75
2023/03/18 01:34:16;;;;;;;5.90;4.80;;;10.30;1.00;;;;;;5052766;28;20376;-76
2023/03/18 01:36:42;;;;;;;6.93;6.20;;;10.30;1.00;;;;;;5052140;28;20464;-69
2023/03/18 01:39:09;;;;;;;6.87;6.03;;;10.30;1.00;;;;;;5052489;28;20372;-75
2023/03/18 01:41:35;;;;;;;8.93;5.40;;;10.30;1.00;;;;;;5051644;28;20482;-76
2023/03/18 01:44:03;;;;;;;6.20;5.70;;;10.30;1.00;;;;;;5052757;28;20402;-75
2023/03/18 01:46:43;;;;;;;9.73;6.50;;;10.30;1.00;;;;;;5051673;28;20527;-75
2023/03/18 01:49:24;;;;;;;6.53;5.80;;;10.20;1.00;;;;;;5052809;28;20927;-69
2023/03/18 01:51:56;;;;;;;5.93;5.27;;;10.20;1.00;;;;;;5031788;28;20426;-69
2023/03/18 01:54:24;;;;;;;5.93;5.43;;;10.20;1.00;;;;;;5032784;28;20899;-76
2023/03/18 01:56:51;;;;;;;5.83;5.37;;;10.30;1.00;;;;;;5014632;28;20969;-75
2023/03/18 01:59:20;;;;;;;7.30;6.60;;;10.20;1.00;;;;;;5032665;28;20887;-70
2023/03/18 02:01:57;;;;;;;8.33;6.30;;;10.30;1.00;;;;;;5049181;28;20960;-71
2023/03/18 02:04:26;;;;;;;10.53;6.07;;;10.30;1.00;;;;;;5052544;28;20397;-76
2023/03/18 02:06:52;;;;;;;9.93;5.70;;;10.30;1.00;;;;;;5052587;28;20468;-76
2023/03/18 02:09:18;;;;;;;6.17;5.57;;;10.30;1.00;;;;;;5034719;28;20388;-69
2023/03/18 02:11:48;;;;;;;10.30;5.87;;;10.30;1.00;;;;;;5034024;28;20407;-73
2023/03/18 02:14:16;;;;;;;6.33;5.73;;;10.30;1.00;;;;;;5033106;28;20429;-75
2023/03/18 02:17:09;;;;;;;6.37;5.77;;;10.20;1.00;;;;;;5051693;28;21145;-70
2023/03/18 02:19:49;;;;;;;7.27;6.57;;;10.20;1.00;;;;;;5041756;28;20772;-70
2023/03/18 02:22:24;;;;;;;7.40;6.13;;;10.20;1.00;;;;;;5033604;28;20474;-75
2023/03/18 02:25:12;;;;;;;5.67;5.10;;;10.20;1.00;;;;;;5054474;28;20824;-75
2023/03/18 02:27:43;;;;;;;6.23;5.40;;;10.30;1.00;;;;;;5056134;28;20435;-70
2023/03/18 02:30:15;;;;;;;5.70;5.20;;;10.30;1.00;;;;;;5054171;28;20478;-75
2023/03/18 02:32:44;;;;;;;6.63;5.27;;;10.30;1.00;;;;;;5055445;28;20400;-73
2023/03/18 02:35:11;;;;;;;6.23;5.63;;;10.30;1.00;;;;;;5055226;28;20437;-76
2023/03/18 02:37:37;;;;;;;8.57;6.13;;;10.20;1.00;;;;;;5056031;28;20392;-70
2023/03/18 02:40:16;;;;;;;6.70;6.00;;;10.20;1.00;;;;;;5055648;28;20409;-70
2023/03/18 02:42:43;;;;;;;7.80;5.50;;;10.20;1.00;;;;;;5054653;28;20788;-75
2023/03/18 02:45:21;;;;;;;6.70;5.80;;;10.20;1.00;;;;;;5055770;28;20887;-70
2023/03/18 02:47:48;;;;;;;5.90;5.30;;;10.20;1.00;;;;;;5018165;28;20504;-71
2023/03/18 02:50:15;;;;;;;10.83;5.77;;;10.20;1.00;;;;;;5017198;28;20488;-76
2023/03/18 02:52:44;;;;;;;5.80;5.17;;;10.20;1.00;;;;;;5035274;28;20455;-75
2023/03/18 02:55:09;;;;;;;7.50;6.30;;;10.20;1.00;;;;;;5017878;28;20886;-75
2023/03/18 02:57:35;;;;;;;8.47;5.80;;;10.20;1.00;;;;;;5046449;28;20491;-75
2023/03/18 03:00:01;;;;;;;7.23;6.53;;;10.20;1.00;;;;;;5054447;28;20175;-76
2023/03/18 03:02:27;;;;;;;7.20;6.10;;;10.10;1.00;;;;;;5054727;28;20223;-70
2023/03/18 03:04:53;;;;;;;10.23;6.23;;;10.20;1.00;;;;;;5055445;28;20376;-70
2023/03/18 03:07:18;;;;;;;14.13;6.40;;;10.10;1.00;;;;;;5054803;28;20217;-70
2023/03/18 03:09:45;;;;;;;9.00;6.00;;;10.20;1.00;;;;;;5055166;28;20171;-71
2023/03/18 03:12:11;;;;;;;7.90;5.90;;;10.10;1.00;;;;;;5052557;28;20562;-70
2023/03/18 03:14:36;;;;;;;6.70;6.10;;;10.10;1.00;;;;;;5054222;28;20454;-70
2023/03/18 03:17:03;;;;;;;6.50;5.80;;;10.00;1.00;;;;;;5037514;28;20392;-76
2023/03/18 03:19:29;;;;;;;6.13;5.57;;;10.00;1.00;;;;;;5055179;28;20182;-70
2023/03/18 03:21:55;;;;;;;7.03;6.40;;;9.90;1.00;;;;;;5036350;28;20410;-70
2023/03/18 03:24:21;;;;;;;6.77;6.10;;;9.90;1.00;;;;;;5055239;28;20401;-71
2023/03/18 03:26:47;;;;;;;5.77;5.20;;;9.90;1.00;;;;;;5035542;28;20957;-75
2023/03/18 03:29:13;;;;;;;6.77;6.03;;;9.90;1.00;;;;;;5054019;28;20187;-70
2023/03/18 03:31:39;;;;;;;6.23;5.63;;;9.90;1.00;;;;;;5051449;28;20190;-71
2023/03/18 03:34:05;;;;;;;9.10;5.37;;;9.90;1.00;;;;;;5052377;28;20201;-76
2023/03/18 03:36:31;;;;;;;6.63;6.03;;;9.90;1.00;;;;;;5054915;28;20368;-70
2023/03/18 03:38:57;;;;;;;7.30;5.80;;;9.90;1.00;;;;;;5054848;28;20739;-70
2023/03/18 03:41:23;;;;;;;8.03;6.00;;;9.90;1.00;;;;;;5036254;28;20429;-76
2023/03/18 03:43:49;;;;;;;7.90;6.10;;;9.90;1.00;;;;;;5054712;28;20167;-76
2023/03/18 03:46:15;;;;;;;6.00;5.50;;;9.90;1.00;;;;;;5053122;28;20259;-76
2023/03/18 03:48:41;;;;;;;6.17;5.60;;;9.90;1.00;;;;;;5053898;28;20407;-76
2023/03/18 03:51:07;;;;;;;7.00;6.30;;;9.90;1.00;;;;;;5052485;28;20896;-72
2023/03/18 03:53:34;;;;;;;6.60;5.70;;;9.80;1.00;;;;;;5036718;28;20170;-76
2023/03/18 03:56:00;;;;;;;8.13;5.73;;;9.80;1.00;;;;;;5054479;28;20415;-76
2023/03/18 03:58:27;;;;;;;7.83;5.57;;;9.80;1.00;;;;;;5054533;28;20518;-71
2023/03/18 04:00:52;;;;;;;5.73;5.23;;;9.80;1.00;;;;;;5052062;28;20269;-75
2023/03/18 04:03:18;;;;;;;11.83;6.40;;;9.80;1.00;;;;;;5053176;28;20515;-76
2023/03/18 04:05:44;;;;;;;7.50;6.17;;;9.80;1.00;;;;;;5036567;28;20520;-71
2023/03/18 04:08:10;;;;;;;6.60;5.77;;;9.90;1.00;;;;;;5054229;28;20249;-70
2023/03/18 04:10:36;;;;;;;7.30;6.20;;;9.90;1.00;;;;;;5053247;28;20227;-76
2023/03/18 04:13:03;;;;;;;7.30;5.50;;;9.90;1.00;;;;;;5035256;28;20920;-72
2023/03/18 04:15:29;;;;;;;6.90;6.30;;;9.90;1.00;;;;;;5053893;28;20981;-76
2023/03/18 04:17:54;;;;;;;10.07;6.20;;;9.90;1.00;;;;;;5052554;28;20515;-70
2023/03/18 04:20:20;;;;;;;6.07;5.50;;;9.90;1.00;;;;;;5035190;28;20174;-76
2023/03/18 04:22:46;;;;;;;9.10;6.37;;;9.90;1.00;;;;;;5053858;28;20764;-70
2023/03/18 04:25:16;;;;;;;7.83;5.90;;;9.90;1.00;;;;;;5053869;28;20198;-75
2023/03/18 04:27:42;;;;;;;6.50;5.90;;;9.90;1.00;;;;;;5052281;28;20468;-75
2023/03/18 04:30:09;;;;;;;5.50;5.10;;;9.90;1.00;;;;;;5052556;28;20406;-69
2023/03/18 04:32:35;;;;;;;5.80;5.20;;;9.90;1.00;;;;;;5035904;28;20753;-70
2023/03/18 04:35:02;;;;;;;7.00;5.40;;;9.80;1.00;;;;;;5053194;28;20860;-71
2023/03/18 04:37:28;;;;;;;8.63;5.40;;;9.80;1.00;;;;;;5054373;28;20416;-70
2023/03/18 04:39:54;;;;;;;4.97;4.63;;;9.80;1.00;;;;;;5053451;28;20376;-76
2023/03/18 04:42:19;;;;;;;9.83;5.60;;;9.80;3.80;;;;;;5051366;28;20937;-75
2023/03/18 04:44:45;;;;;;;5.13;4.73;;;9.80;9.50;;;;;;5053593;28;20387;-76
2023/03/18 04:47:12;;;;;;;5.97;5.47;;;9.70;13.60;;;;;;5053478;28;20242;-77
2023/03/18 04:49:38;;;;;;;10.93;6.40;;;9.70;18.90;;;;;;5053496;28;20272;-76
2023/03/18 04:52:04;;;;;;;9.20;5.97;;;9.70;16.20;;;;;;5052489;28;20418;-76
2023/03/18 04:54:36;;;;;;;5.70;5.20;;;9.80;12.90;;;;;;5052465;28;20397;-76
2023/03/18 04:57:02;;;;;;;6.73;6.07;;;9.80;13.00;;;;;;5052358;28;20765;-71
2023/03/18 04:59:28;;;;;;;8.10;4.77;;;9.80;14.00;;;;;;5035414;28;20388;-70
2023/03/18 05:01:53;;;;;;;9.97;6.13;;;9.90;16.80;;;;;;5051451;28;20440;-70
2023/03/18 05:04:19;;;;;;;6.73;6.13;;;9.90;19.60;;;;;;5053395;28;20563;-76
2023/03/18 05:06:45;;;;;;;5.47;5.07;;;9.90;17.90;;;;;;5035320;28;20202;-76
2023/03/18 05:09:12;;;;;;;11.53;6.70;;;9.90;15.40;;;;;;5052272;28;20425;-72
2023/03/18 05:11:37;;;;;;;6.87;6.20;;;9.90;12.20;;;;;;5050793;28;20268;-75
2023/03/18 05:14:03;;;;;;;8.30;5.17;;;10.00;11.00;;;;;;5035349;28;20417;-70
2023/03/18 05:16:29;;;;;;;8.27;5.63;;;10.00;9.10;;;;;;5035242;28;20182;-69
2023/03/18 05:18:55;;;;;;;8.00;6.60;;;10.00;7.60;;;;;;5035372;28;20409;-76
2023/03/18 05:21:21;;;;;;;6.67;5.83;;;10.00;7.20;;;;;;5034428;28;20430;-69
2023/03/18 05:23:47;;;;;;;6.97;6.30;;;10.00;7.90;;;;;;5051989;28;20453;-75
2023/03/18 05:26:12;;;;;;;7.50;6.27;;;10.00;8.20;;;;;;5052141;28;20182;-75
2023/03/18 05:28:39;;;;;;;6.13;5.33;;;10.00;11.20;;;;;;5052353;28;20210;-75
2023/03/18 05:31:06;;;;;;;7.13;6.40;;;10.00;10.50;;;;;;5050893;28;20183;-75
2023/03/18 05:33:32;;;;;;;7.07;6.10;;;10.00;10.80;;;;;;5053070;28;20923;-69
2023/03/18 05:35:57;;;;;;;9.57;6.10;;;10.00;13.40;;;;;;5052771;28;20442;-69
2023/03/18 05:38:24;;;;;;;8.50;6.63;;;10.00;15.30;;;;;;5050928;28;21453;-75
2023/03/18 05:40:50;;;;;;;8.63;6.33;;;10.00;15.80;;;;;;5051934;28;20185;-75
2023/03/18 05:43:16;;;;;;;10.57;6.33;;;10.00;18.50;;;;;;5035120;28;20414;-70
2023/03/18 05:45:43;;;;;;;10.70;7.47;;;10.00;19.10;;;;;;5051830;28;20411;-74
2023/03/18 05:48:19;;;;;;;6.90;6.30;;;10.00;21.70;;;;;;5052252;28;20461;-69
2023/03/18 05:50:46;;;;;;;8.03;6.97;;;10.00;23.00;;;;;;5033551;28;20424;-69
2023/03/18 05:53:15;;;;;;;8.60;7.43;;;10.10;26.70;;;;;;5034114;28;20451;-70
2023/03/18 05:55:41;;;;;;;6.73;6.07;;;10.10;30.60;;;;;;5052868;28;20721;-75
2023/03/18 05:58:08;;;;;;;8.73;7.03;;;10.10;32.40;;;;;;5054460;28;20417;-69
2023/03/18 06:00:36;;;;;;;12.80;7.47;;;10.10;35.00;;;;;;5036999;28;20437;-75
2023/03/18 06:03:02;;;;;;;8.67;6.80;;;10.20;34.70;;;;;;5056599;28;20491;-71
2023/03/18 06:05:29;;;;;;;7.00;6.30;;;10.20;33.90;;;;;;5037955;28;20398;-72
2023/03/18 06:07:56;;;;;;;8.10;7.30;;;10.10;34.80;;;;;;5054985;28;20979;-75
2023/03/18 06:10:23;;;;;;;10.27;6.63;;;10.20;39.40;;;;;;5055477;28;20893;-75
2023/03/18 06:12:50;;;;;;;7.70;6.90;;;10.20;40.10;;;;;;5056388;28;20762;-69
2023/03/18 06:15:17;;;;;;;10.20;7.00;;;10.20;45.00;;;;;;5056331;28;20966;-69
2023/03/18 06:17:43;;;;;;;8.90;7.23;;;10.20;45.20;;;;;;5055315;28;20521;-76
2023/03/18 06:20:10;;;;;;;7.40;6.70;;;10.20;47.90;;;;;;5054385;28;20557;-75
2023/03/18 06:22:37;;;;;;;10.93;6.90;;;10.20;49.50;;;;;;5056048;28;20607;-70
2023/03/18 06:25:06;;;;;;;11.63;7.13;;;10.30;52.30;;;;;;5038034;28;20408;-70
2023/03/18 06:27:32;;;;;;;8.30;6.63;;;10.30;52.90;;;;;;5057591;28;20442;-69
2023/03/18 06:30:01;;;;;;;8.67;6.90;;;10.30;54.80;;;;;;5038328;28;20388;-70
2023/03/18 06:32:28;;;;;;;7.80;7.10;;;10.30;53.00;;;;;;5054295;28;20434;-75
2023/03/18 06:34:54;;;;;;;7.73;6.70;;;10.30;56.10;;;;;;5055457;28;20431;-69
2023/03/18 06:37:21;;;;;;;9.80;6.97;;;10.30;61.20;;;;;;5037994;28;20395;-69
2023/03/18 06:39:50;;;;;;;8.37;7.57;;;10.30;61.00;;;;;;5056058;28;20861;-75
2023/03/18 06:42:19;;;;;;;12.40;7.40;;;10.30;64.00;;;;;;5037459;28;20432;-70
2023/03/18 06:44:49;;;;;;;9.97;8.33;;;10.40;67.00;;;;;;5055478;28;20791;-75
2023/03/18 06:47:17;;;;;;;8.67;7.77;;;10.40;65.70;;;;;;5037064;28;20839;-69
2023/03/18 06:49:43;;;;;;;7.23;6.53;;;10.40;67.00;;;;;;5037046;28;20440;-74
2023/03/18 06:52:09;;;;;;;17.77;7.20;;;10.50;68.50;;;;;;5037128;28;20414;-75
2023/03/18 06:54:35;;;;;;;12.40;9.00;;;10.40;63.80;;;;;;5037639;28;20175;-70
2023/03/18 06:57:00;;;;;;;7.80;7.00;;;10.40;65.30;;;;;;5055723;28;20178;-70
2023/03/18 06:59:26;;;;;;;15.07;7.43;;;10.50;68.50;;;;;;5036059;28;20807;-75
2023/03/18 07:01:52;;;;;;;10.70;8.10;;;10.50;71.10;;;;;;5034308;28;20201;-69
2023/03/18 07:04:19;;;;;;;11.20;9.60;;;10.50;72.40;;;;;;5035349;28;20189;-69
2023/03/18 07:07:04;;;;;;;12.13;10.43;;;10.60;71.40;;;;;;5055223;28;20416;-73
2023/03/18 07:09:33;;;;;;;16.40;11.17;;;10.70;71.90;;;;;;5054045;28;20382;-73
2023/03/18 07:11:59;;;;;;;12.77;11.37;;;10.70;71.10;;;;;;5054232;28;20425;-73
2023/03/18 07:14:27;;;;;;;11.53;8.77;;;10.70;69.90;;;;;;5055175;28;20368;-73
2023/03/18 07:16:54;;;;;;;10.73;9.67;;;10.80;74.80;;;;;;5053803;28;20824;-74
2023/03/18 07:19:20;;;;;;;10.83;8.40;;;10.80;78.20;;;;;;5053531;28;20461;-74
2023/03/18 07:21:46;;;;;;;11.17;9.03;;;10.90;74.30;;;;;;5036292;28;20408;-71
2023/03/18 07:24:13;;;;;;;9.03;7.67;;;11.00;73.40;;;;;;5055227;28;20380;-73
2023/03/18 07:26:38;;;;;;;10.43;8.23;;;11.00;71.10;;;;;;5054942;28;20249;-71
2023/03/18 07:29:05;;;;;;;13.00;9.97;;;11.10;68.10;;;;;;5054880;28;21009;-72
2023/03/18 07:31:30;;;;;;;20.43;12.67;;;11.10;67.50;;;;;;5053728;28;20245;-71
2023/03/18 07:33:56;;;;;;;16.90;12.40;;;11.00;68.00;;;;;;5053322;28;20941;-73
2023/03/18 07:36:23;;;;;;;16.90;11.13;;;11.00;70.50;;;;;;5035688;28;20261;-73
2023/03/18 07:38:49;;;;;;;15.00;10.13;;;11.10;71.00;;;;;;5052031;28;20201;-70
2023/03/18 07:41:14;;;;;;;10.40;9.40;;;11.10;72.80;;;;;;5035835;28;20417;-71
2023/03/18 07:43:40;;;;;;;10.03;7.63;;;11.10;68.40;;;;;;5054819;28;20170;-72
2023/03/18 07:46:06;;;;;;;9.70;8.50;;;11.00;70.80;;;;;;5054691;28;20170;-72
2023/03/18 07:48:38;;;;;;;10.37;8.30;;;11.10;70.70;;;;;;5035765;28;20514;-73
2023/03/18 07:51:04;;;;;;;11.33;8.77;;;11.10;74.50;;;;;;5052164;28;20448;-74
2023/03/18 07:53:30;;;;;;;10.57;8.20;;;11.10;74.30;;;;;;5053653;28;20781;-73
2023/03/18 07:55:56;;;;;;;10.40;8.00;;;11.20;76.00;;;;;;5053931;28;20411;-73
2023/03/18 07:58:22;;;;;;;11.87;8.53;;;11.30;74.40;;;;;;5054393;28;20380;-73
2023/03/18 08:00:48;;;;;;;11.20;8.77;;;11.40;72.30;;;;;;5052776;28;20706;-72
2023/03/18 08:03:21;;;;;;;10.30;8.57;;;11.40;68.80;;;;;;5054197;28;20191;-70
2023/03/18 08:05:47;;;;;;;11.27;8.17;;;11.40;70.20;;;;;;5054289;28;20376;-73
2023/03/18 08:08:14;;;;;;;11.13;10.03;;;11.40;71.00;;;;;;5034108;28;20515;-73
2023/03/18 08:10:40;;;;;;;11.60;9.73;;;11.40;71.50;;;;;;5052447;28;20396;-75
2023/03/18 08:13:05;;;;;;;10.70;9.63;;;11.50;75.20;;;;;;5034399;28;21116;-71
2023/03/18 08:15:31;;;;;;;15.63;9.37;;;11.60;72.80;;;;;;5050447;28;20214;-73
2023/03/18 08:17:57;;;;;;;10.20;8.60;;;11.70;73.90;;;;;;5052802;28;20170;-74
2023/03/18 08:20:22;;;;;;;12.27;9.97;;;11.80;71.40;;;;;;5034854;28;20175;-71
2023/03/18 08:22:49;;;;;;;10.90;9.20;;;11.80;64.00;;;;;;5035336;28;20242;-70
2023/03/18 08:25:15;;;;;;;13.27;9.00;;;11.80;64.10;;;;;;5051853;28;20194;-72
2023/03/18 08:27:41;;;;;;;19.83;10.63;;;11.80;63.60;;;;;;5033066;28;20842;-73
2023/03/18 08:30:09;;;;;;;13.73;10.60;;;11.70;64.20;;;;;;5051593;28;20403;-70
2023/03/18 08:32:34;;;;;;;11.50;9.67;;;11.80;69.90;;;;;;5034948;28;20446;-70
2023/03/18 08:35:01;;;;;;;11.00;9.93;;;11.90;67.90;;;;;;5053780;28;20467;-75
2023/03/18 08:37:27;;;;;;;13.57;9.63;;;12.00;65.90;;;;;;5053602;28;20265;-74
2023/03/18 08:39:53;;;;;;;13.23;9.53;;;12.10;67.00;;;;;;5053427;28;20376;-75
2023/03/18 08:42:20;;;;;;;16.17;11.40;;;12.20;61.70;;;;;;5051047;28;20451;-74
2023/03/18 08:44:46;;;;;;;12.30;10.60;;;12.20;59.30;;;;;;5035640;28;20384;-74
2023/03/18 08:47:11;;;;;;;11.70;10.00;;;12.40;61.10;;;;;;5053150;28;20461;-75
2023/03/18 08:49:38;;;;;;;11.93;10.73;;;12.50;55.20;;;;;;5053500;28;20159;-75
2023/03/18 08:52:05;;;;;;;15.93;11.07;;;12.40;52.00;;;;;;5052480;28;20421;-70
2023/03/18 08:54:31;;;;;;;17.83;11.10;;;12.50;49.00;;;;;;5050336;28;20428;-68
2023/03/18 08:56:58;;;;;;;13.33;11.43;;;12.50;50.10;;;;;;5053516;28;20435;-75
2023/03/18 08:59:24;;;;;;;13.87;11.07;;;12.50;53.60;;;;;;5053241;28;20775;-71
2023/03/18 09:01:50;;;;;;;16.20;11.83;;;12.70;50.00;;;;;;5033542;28;20416;-74
2023/03/18 09:04:16;;;;;;;17.03;11.40;;;12.70;44.30;;;;;;5035150;28;20778;-75
2023/03/18 09:06:42;;;;;;;13.10;11.80;;;12.70;39.00;;;;;;5053086;28;20425;-69
2023/03/18 09:09:08;;;;;;;14.87;12.00;;;12.70;38.80;;;;;;5034152;28;20841;-74
2023/03/18 09:11:34;;;;;;;16.23;12.37;;;12.80;36.60;;;;;;5052201;28;20218;-74
2023/03/18 09:14:07;;;;;;;20.50;14.60;;;12.70;31.50;;;;;;5053164;28;20372;-70
2023/03/18 09:16:36;;;;;;;19.63;14.10;;;12.70;36.00;;;;;;5051907;28;20764;-69
2023/03/18 09:19:11;;;;;;;19.93;14.60;;;12.80;38.20;;;;;;5053105;28;20381;-74
2023/03/18 09:21:37;;;;;;;18.23;14.23;;;13.00;43.50;;;;;;5051306;28;20443;-70
2023/03/18 09:24:03;;;;;;;17.20;14.67;;;13.20;33.10;;;;;;5052414;28;20735;-75
2023/03/18 09:26:29;;;;;;;20.30;15.60;;;13.10;26.30;;;;;;5052890;28;20383;-68
2023/03/18 09:28:55;;;;;;;17.70;14.20;;;13.10;21.00;;;;;;5034705;28;20407;-75
2023/03/18 09:31:21;;;;;;;15.27;13.77;;;13.00;20.20;;;;;;5033610;28;20291;-69
2023/03/18 09:33:47;;;;;;;19.30;14.07;;;12.90;23.00;;;;;;5052207;28;20395;-69
2023/03/18 09:36:13;;;;;;;18.07;14.37;;;13.00;26.90;;;;;;5052243;28;20170;-75
2023/03/18 09:38:40;;;;;;;21.67;16.17;;;13.10;27.50;;;;;;5052802;28;20389;-75
2023/03/18 09:41:08;;;;;;;19.07;16.00;;;13.30;26.00;;;;;;5051214;28;20435;-74
2023/03/18 09:43:56;;;;;;;23.63;19.30;;;13.50;26.40;;;;;;5052906;28;20376;-70
2023/03/18 09:46:25;;;;;;;23.33;18.40;;;13.50;11.70;;;;;;5032916;28;20463;-70
2023/03/18 09:49:27;;;;;;;21.50;17.90;;;13.50;14.20;;;;;;5032797;28;20457;-69
2023/03/18 09:52:22;;;;;;;24.57;17.10;;;13.50;8.90;;;;;;5031620;28;20408;-75
2023/03/18 09:54:58;;;;;;;29.63;17.90;;;13.40;9.00;;;;;;5032827;28;20410;-75
2023/03/18 09:57:32;;;;;;;27.40;20.07;;;13.50;8.90;;;;;;5032921;28;20377;-75
2023/03/18 10:00:23;;;;;;;24.70;19.27;;;13.50;5.90;;;;;;5034209;28;20482;-75
2023/03/18 10:02:55;;;;;;;30.40;20.23;;;13.70;8.60;;;;;;5051280;28;20485;-69
2023/03/18 10:05:54;;;;;;;29.47;22.90;;;13.70;8.10;;;;;;5051592;28;20442;-74
2023/03/18 10:09:02;;;;;;;26.20;19.50;;;14.20;14.70;;;;;;5036414;28;20460;-74
2023/03/18 10:11:38;;;;;;;32.07;20.80;;;14.80;5.00;;;;;;5010948;28;20431;-70
2023/03/18 10:14:49;;;;;;;29.17;21.13;;;15.40;1.00;;;;;;5050145;28;20904;-69
2023/03/18 10:17:22;;;;;;;30.37;19.33;;;15.30;1.00;;;;;;4968252;28;20467;-75
2023/03/18 10:19:56;;;;;;;23.53;18.53;;;14.80;1.00;;;;;;4962879;28;20442;-76
2023/03/18 10:22:37;;;;;;;40.70;23.33;;;14.40;1.00;;;;;;5016032;28;20445;-71
2023/03/18 10:25:24;;;;;;;28.47;20.00;;;14.20;1.00;;;;;;5033995;28;20502;-72
2023/03/18 10:52:33;;;;;;;31.10;21.47;;;13.50;20.10;;;;;;5069014;28;20971;-73
2023/03/18 10:54:59;;;;;;;31.30;24.00;;;13.50;36.30;;;;;;5069770;28;20405;-69
2023/03/18 10:57:25;;;;;;;34.00;23.97;;;13.60;50.90;;;;;;5070317;28;20404;-70
2023/03/18 10:59:51;;;;;;;35.30;23.83;;;13.70;40.60;;;;;;5058192;28;20174;-72
2023/03/18 11:02:18;;;;;;;37.53;25.03;;;13.70;39.00;;;;;;5049522;28;20492;-67
2023/03/18 11:04:53;;;;;;;32.63;22.70;;;14.00;42.20;;;;;;5051221;28;20640;-70
2023/03/18 11:07:24;;;;;;;32.63;22.60;;;14.70;29.70;;;;;;5050146;28;20397;-70
2023/03/18 11:09:50;;;;;;;36.40;24.50;;;15.20;29.50;;;;;;5062087;28;21036;-70
2023/03/18 11:12:27;;;;;;;31.70;22.40;;;15.80;16.40;;;;;;5055707;28;20453;-67
2023/03/18 11:14:53;;;;;;;31.20;22.47;;;16.00;7.10;;;;;;5057750;28;20404;-69
2023/03/18 11:17:28;;;;;;;36.17;24.20;;;16.10;4.40;;;;;;5069955;28;20920;-68
2023/03/18 11:19:59;;;;;;;31.43;22.97;;;16.10;4.30;;;;;;5053799;28;20478;-74
2023/03/18 11:22:26;;;;;;;35.93;23.13;;;16.10;1.00;;;;;;5049097;28;20421;-72
2023/03/18 11:25:17;;;;;;;31.60;22.50;;;15.70;1.00;;;;;;5050001;28;20809;-68
2023/03/18 11:27:46;;;;;;;35.20;22.30;;;15.70;1.00;;;;;;5049133;28;20424;-74
2023/03/18 11:30:24;;;;;;;35.43;23.43;;;15.60;1.00;;;;;;5049585;28;20461;-68
2023/03/18 11:32:52;;;;;;;28.13;22.47;;;15.40;1.00;;;;;;5049556;28;20421;-70
2023/03/18 11:35:22;;;;;;;29.90;22.67;;;15.00;1.00;;;;;;5067016;28;20465;-70
2023/03/18 11:37:49;;;;;;;30.77;22.20;;;15.00;1.00;;;;;;5069491;28;20897;-72
2023/03/18 11:40:28;;;;;;;31.33;21.13;;;15.00;1.00;;;;;;5051077;28;20461;-68
2023/03/18 11:42:59;;;;;;;29.83;22.93;;;15.10;1.00;;;;;;5049454;28;20993;-68
2023/03/18 11:45:25;;;;;;;30.00;22.00;;;15.30;1.00;;;;;;5066572;28;20432;-69
2023/03/18 11:47:54;;;;;;;29.27;20.73;;;15.50;1.00;;;;;;5067634;28;20413;-69
2023/03/18 11:50:24;;;;;;;27.40;21.47;;;15.60;1.00;;;;;;5051610;28;20211;-69
2023/03/18 11:53:07;;;;;;;29.17;22.37;;;15.40;1.00;;;;;;5049913;28;20547;-70
2023/03/18 11:55:54;;;;;;;33.10;22.60;;;15.00;1.00;;;;;;5049868;28;20428;-67
2023/03/18 11:58:46;;;;;;;32.53;23.20;;;14.80;1.00;;;;;;5048899;28;20449;-73
2023/03/18 12:01:38;;;;;;;27.53;22.40;;;14.50;1.00;;;;;;5066848;28;20874;-72
2023/03/18 12:04:19;;;;;;;30.67;22.60;;;14.30;1.00;;;;;;5051240;28;20533;-70
2023/03/18 12:07:29;;;;;;;30.97;24.07;;;14.20;1.00;;;;;;5035288;28;20429;-67
2023/03/18 12:10:11;;;;;;;31.43;23.50;;;14.00;1.00;;;;;;5034768;28;20727;-69
2023/03/18 12:13:02;;;;;;;35.70;25.50;;;13.80;4.40;;;;;;5051557;28;20434;-68
2023/03/18 12:15:53;;;;;;;39.77;27.47;;;13.70;10.10;;;;;;5035658;28;20377;-68
2023/03/18 12:18:41;;;;;;;41.93;26.20;;;13.80;17.00;;;;;;5035597;28;20418;-68
2023/03/18 12:21:21;;;;;;;40.43;25.63;;;13.90;22.90;;;;;;5034415;28;20376;-69
2023/03/18 12:24:12;;;;;;;34.77;25.27;;;14.20;29.70;;;;;;5038078;28;20723;-68
2023/03/18 12:26:55;;;;;;;36.50;24.90;;;14.60;19.40;;;;;;5035376;28;20980;-73
2023/03/18 12:29:24;;;;;;;45.03;26.07;;;14.90;15.90;;;;;;5045977;28;20462;-70
2023/03/18 12:31:57;;;;;;;42.43;26.00;;;15.40;9.20;;;;;;5048652;28;20473;-73
2023/03/18 12:34:41;;;;;;;40.37;26.20;;;15.30;1.00;;;;;;5054180;28;20463;-72
2023/03/18 12:37:17;;;;;;;33.70;24.10;;;15.00;1.00;;;;;;5054192;28;20393;-72
2023/03/18 12:40:06;;;;;;;39.07;31.03;;;14.80;1.00;;;;;;5050099;28;20416;-73
2023/03/18 12:43:08;;;;;;;38.97;27.10;;;14.90;3.70;;;;;;5050385;28;20445;-72
2023/03/18 12:45:41;;;;;;;35.07;24.47;;;15.00;1.40;;;;;;5047283;28;20420;-69
2023/03/18 12:48:31;;;;;;;33.73;22.57;;;14.80;1.00;;;;;;5042310;28;20957;-71
2023/03/18 12:51:04;;;;;;;38.07;25.57;;;14.50;1.00;;;;;;5035777;28;20468;-70
2023/03/18 12:53:47;;;;;;;38.20;24.60;;;14.40;1.00;;;;;;5034999;28;20422;-72
2023/03/18 12:56:20;;;;;;;39.13;24.33;;;14.40;1.00;;;;;;5037168;28;20469;-72
2023/03/18 12:59:11;;;;;;;35.13;25.00;;;14.20;1.00;;;;;;5054645;28;20493;-70
2023/03/18 13:02:25;;;;;;;39.07;22.83;;;14.10;2.50;;;;;;5043670;28;20805;-72
2023/03/18 13:04:57;;;;;;;31.93;20.00;;;14.10;3.00;;;;;;5050358;28;20816;-72
2023/03/18 13:07:46;;;;;;;26.10;19.67;;;14.10;4.10;;;;;;5046510;28;20421;-74
2023/03/18 13:10:22;;;;;;;28.83;18.23;;;14.10;1.90;;;;;;5053733;28;20476;-72
2023/03/18 13:12:56;;;;;;;25.30;16.97;;;14.20;7.60;;;;;;5039587;28;20491;-68
2023/03/18 13:15:37;;;;;;;28.07;18.47;;;14.30;9.20;;;;;;5036723;28;20433;-73
2023/03/18 13:18:34;;;;;;;34.03;18.83;;;14.40;1.00;;;;;;5037611;28;20810;-70
2023/03/18 13:21:00;;;;;;;22.00;15.27;;;14.40;1.00;;;;;;5032535;28;20422;-68
2023/03/18 13:23:38;;;;;;;19.40;13.47;;;14.60;1.00;;;;;;5050679;28;20798;-70
2023/03/18 13:26:12;;;;;;;20.33;14.73;;;14.40;1.00;;;;;;5054212;28;20487;-72